DPV9664 SBSP-SBGO
Flight info
| Callsign | DPV9664 |
|---|---|
| Flight time | 1h 12m |
| Altitude | 36000 |
| Route | GERTU UZ25 PUGOR/N0447F380 UZ25 CORVO |
| Aircraft | A20N/M-SDE2E3FGHIRWXY/LB1 |
Departure
| Time | 2026-04-17 21:46 |
|---|---|
| Airport | Congonhas–Deputado Freitas Nobre Airport (SBSP) |
Arrival
| Time | 2026-04-17 22:58 |
|---|---|
| Airport | Santa Genoveva International Airport (SBGO) |
| Time | Latitude | Longitude | Altitude | Speed | Heading |
|---|---|---|---|---|---|
| 2026-04-17 21:38 | -23.62451 | -46.65951 | 2600 ft | 0 kts | 327° |
| 2026-04-17 21:41 | -23.62451 | -46.65952 | 2600 ft | 1 kts | 327° |
| 2026-04-17 21:41 | -23.62428 | -46.65968 | 2600 ft | 7 kts | 327° |
| 2026-04-17 21:41 | -23.62365 | -46.66012 | 2600 ft | 14 kts | 327° |
| 2026-04-17 21:42 | -23.62258 | -46.66044 | 2599 ft | 19 kts | 353° |
| 2026-04-17 21:42 | -23.62138 | -46.66112 | 2594 ft | 16 kts | 327° |
| 2026-04-17 21:42 | -23.62127 | -46.66120 | 2591 ft | 0 kts | 327° |
| 2026-04-17 21:44 | -23.62123 | -46.66122 | 2592 ft | 4 kts | 326° |
| 2026-04-17 21:44 | -23.62072 | -46.66131 | 2597 ft | 11 kts | 35° |
| 2026-04-17 21:45 | -23.62088 | -46.66048 | 2591 ft | 16 kts | 147° |
| 2026-04-17 21:45 | -23.62110 | -46.66033 | 2597 ft | 0 kts | 147° |
| 2026-04-17 21:45 | -23.62269 | -46.65923 | 2599 ft | 68 kts | 147° |
| 2026-04-17 21:45 | -23.62885 | -46.65496 | 2608 ft | 139 kts | 147° |
| 2026-04-17 21:46 | -23.63783 | -46.64876 | 3086 ft | 155 kts | 150° |
| 2026-04-17 21:46 | -23.64714 | -46.64226 | 3800 ft | 161 kts | 149° |
| 2026-04-17 21:46 | -23.65668 | -46.63546 | 4530 ft | 169 kts | 150° |
| 2026-04-17 21:46 | -23.66694 | -46.62819 | 5069 ft | 187 kts | 150° |
| 2026-04-17 21:47 | -23.67840 | -46.62013 | 5526 ft | 207 kts | 150° |
| 2026-04-17 21:47 | -23.69127 | -46.61111 | 5924 ft | 230 kts | 150° |
| 2026-04-17 21:47 | -23.70540 | -46.60118 | 6408 ft | 252 kts | 150° |
| 2026-04-17 21:47 | -23.72085 | -46.59035 | 6888 ft | 273 kts | 152° |
| 2026-04-17 21:48 | -23.73885 | -46.58361 | 7623 ft | 274 kts | 179° |
| 2026-04-17 21:48 | -23.75746 | -46.58651 | 8518 ft | 271 kts | 205° |
| 2026-04-17 21:48 | -23.77257 | -46.59801 | 9383 ft | 270 kts | 230° |
| 2026-04-17 21:48 | -23.78134 | -46.61594 | 10239 ft | 272 kts | 256° |
| 2026-04-17 21:49 | -23.78239 | -46.63696 | 10837 ft | 288 kts | 273° |
| 2026-04-17 21:49 | -23.77713 | -46.65896 | 11119 ft | 315 kts | 295° |
| 2026-04-17 21:49 | -23.76335 | -46.67858 | 11558 ft | 335 kts | 313° |
| 2026-04-17 21:49 | -23.74542 | -46.69521 | 12348 ft | 340 kts | 319° |
| 2026-04-17 21:50 | -23.72666 | -46.71119 | 13136 ft | 344 kts | 319° |
| 2026-04-17 21:50 | -23.70820 | -46.72729 | 13897 ft | 346 kts | 317° |
| 2026-04-17 21:50 | -23.68960 | -46.74419 | 14635 ft | 350 kts | 316° |
| 2026-04-17 21:50 | -23.67103 | -46.76159 | 15346 ft | 353 kts | 315° |
| 2026-04-17 21:51 | -23.65247 | -46.77923 | 16054 ft | 357 kts | 315° |
| 2026-04-17 21:51 | -23.63361 | -46.79727 | 16744 ft | 360 kts | 315° |
| 2026-04-17 21:51 | -23.61472 | -46.81535 | 17388 ft | 364 kts | 315° |
| 2026-04-17 21:51 | -23.59557 | -46.83366 | 18039 ft | 367 kts | 315° |
| 2026-04-17 21:52 | -23.57627 | -46.85210 | 18673 ft | 370 kts | 315° |
| 2026-04-17 21:52 | -23.55682 | -46.87067 | 19296 ft | 373 kts | 314° |
| 2026-04-17 21:52 | -23.53719 | -46.88940 | 19902 ft | 377 kts | 314° |
| 2026-04-17 21:52 | -23.51738 | -46.90828 | 20499 ft | 380 kts | 314° |
| 2026-04-17 21:53 | -23.49744 | -46.92729 | 21057 ft | 384 kts | 314° |
| 2026-04-17 21:53 | -23.47722 | -46.94656 | 21576 ft | 388 kts | 314° |
| 2026-04-17 21:53 | -23.45682 | -46.96599 | 22168 ft | 390 kts | 314° |
| 2026-04-17 21:53 | -23.43519 | -46.98427 | 22737 ft | 398 kts | 324° |
| 2026-04-17 21:54 | -23.41063 | -46.99895 | 23188 ft | 405 kts | 327° |
| 2026-04-17 21:54 | -23.38571 | -47.01324 | 23769 ft | 406 kts | 327° |
| 2026-04-17 21:54 | -23.36047 | -47.02765 | 24250 ft | 409 kts | 327° |
| 2026-04-17 21:54 | -23.33519 | -47.04217 | 24726 ft | 412 kts | 327° |
| 2026-04-17 21:55 | -23.30967 | -47.05690 | 25084 ft | 418 kts | 327° |
| 2026-04-17 21:55 | -23.29264 | -47.06673 | 25441 ft | 418 kts | 327° |
| 2026-04-17 21:55 | -23.26173 | -47.08458 | 26027 ft | 420 kts | 327° |
| 2026-04-17 21:55 | -23.23580 | -47.09959 | 26423 ft | 424 kts | 327° |
| 2026-04-17 21:56 | -23.20963 | -47.11473 | 26832 ft | 427 kts | 327° |
| 2026-04-17 21:56 | -23.18364 | -47.12975 | 27251 ft | 429 kts | 326° |
| 2026-04-17 21:56 | -23.15726 | -47.14499 | 27627 ft | 431 kts | 326° |
| 2026-04-17 21:56 | -23.13061 | -47.16037 | 28017 ft | 433 kts | 326° |
| 2026-04-17 21:57 | -23.10387 | -47.17580 | 28398 ft | 435 kts | 326° |
| 2026-04-17 21:57 | -23.07705 | -47.19128 | 28724 ft | 438 kts | 326° |
| 2026-04-17 21:57 | -23.05004 | -47.20686 | 29044 ft | 440 kts | 326° |
| 2026-04-17 21:57 | -23.02294 | -47.22248 | 29376 ft | 442 kts | 326° |
| 2026-04-17 21:58 | -22.99573 | -47.23815 | 29702 ft | 444 kts | 326° |
| 2026-04-17 21:58 | -22.96833 | -47.25393 | 29992 ft | 446 kts | 326° |
| 2026-04-17 21:58 | -22.94088 | -47.26974 | 30298 ft | 448 kts | 326° |
| 2026-04-17 21:58 | -22.91319 | -47.28567 | 30594 ft | 450 kts | 326° |
| 2026-04-17 21:59 | -22.88581 | -47.30141 | 30863 ft | 453 kts | 326° |
| 2026-04-17 21:59 | -22.85786 | -47.31748 | 31164 ft | 455 kts | 326° |
| 2026-04-17 21:59 | -22.82990 | -47.33354 | 31493 ft | 455 kts | 326° |
| 2026-04-17 21:59 | -22.80186 | -47.34963 | 31873 ft | 455 kts | 326° |
| 2026-04-17 22:00 | -22.77389 | -47.36567 | 32254 ft | 454 kts | 326° |
| 2026-04-17 22:00 | -22.74602 | -47.38165 | 32641 ft | 453 kts | 326° |
| 2026-04-17 22:00 | -22.71819 | -47.39761 | 33001 ft | 452 kts | 326° |
| 2026-04-17 22:00 | -22.69039 | -47.41353 | 33353 ft | 451 kts | 326° |
| 2026-04-17 22:01 | -22.66268 | -47.42941 | 33685 ft | 450 kts | 326° |
| 2026-04-17 22:01 | -22.63504 | -47.44525 | 33969 ft | 450 kts | 326° |
| 2026-04-17 22:01 | -22.60736 | -47.46109 | 34285 ft | 449 kts | 326° |
| 2026-04-17 22:01 | -22.57970 | -47.47691 | 34581 ft | 449 kts | 325° |
| 2026-04-17 22:02 | -22.55208 | -47.49271 | 34857 ft | 448 kts | 325° |
| 2026-04-17 22:02 | -22.52456 | -47.50844 | 35125 ft | 448 kts | 325° |
| 2026-04-17 22:02 | -22.49699 | -47.52420 | 35389 ft | 447 kts | 325° |
| 2026-04-17 22:02 | -22.46980 | -47.53962 | 35663 ft | 448 kts | 327° |
| 2026-04-17 22:03 | -22.44113 | -47.55323 | 35931 ft | 452 kts | 333° |
| 2026-04-17 22:03 | -22.41111 | -47.56377 | 36159 ft | 457 kts | 339° |
| 2026-04-17 22:03 | -22.37978 | -47.57118 | 36235 ft | 462 kts | 344° |
| 2026-04-17 22:04 | -22.31618 | -47.58158 | 36238 ft | 461 kts | 345° |
| 2026-04-17 22:04 | -22.26348 | -47.59038 | 36238 ft | 461 kts | 345° |
| 2026-04-17 22:05 | -22.19993 | -47.60105 | 36238 ft | 462 kts | 345° |
| 2026-04-17 22:05 | -22.13628 | -47.61173 | 36240 ft | 463 kts | 345° |
| 2026-04-17 22:06 | -22.07262 | -47.62238 | 36233 ft | 462 kts | 345° |
| 2026-04-17 22:06 | -22.00908 | -47.63301 | 36234 ft | 462 kts | 345° |
| 2026-04-17 22:07 | -21.94532 | -47.64367 | 36238 ft | 463 kts | 345° |
| 2026-04-17 22:07 | -21.88216 | -47.65421 | 36236 ft | 463 kts | 344° |
| 2026-04-17 22:08 | -21.81842 | -47.66485 | 36238 ft | 462 kts | 345° |
| 2026-04-17 22:08 | -21.75493 | -47.67543 | 36237 ft | 461 kts | 345° |
| 2026-04-17 22:09 | -21.69132 | -47.68602 | 36236 ft | 461 kts | 345° |
| 2026-04-17 22:09 | -21.62819 | -47.69653 | 36232 ft | 461 kts | 344° |
| 2026-04-17 22:10 | -21.56463 | -47.70705 | 36230 ft | 461 kts | 345° |
| 2026-04-17 22:10 | -21.53290 | -47.71225 | 36234 ft | 461 kts | 345° |
| 2026-04-17 22:11 | -21.47792 | -47.72126 | 36236 ft | 462 kts | 345° |
| 2026-04-17 22:11 | -21.41437 | -47.73167 | 36237 ft | 462 kts | 345° |
| 2026-04-17 22:12 | -21.35106 | -47.74204 | 36236 ft | 462 kts | 345° |
| 2026-04-17 22:12 | -21.28748 | -47.75244 | 36235 ft | 463 kts | 345° |
| 2026-04-17 22:13 | -21.22380 | -47.76285 | 36242 ft | 462 kts | 345° |
| 2026-04-17 22:13 | -21.16007 | -47.77326 | 36243 ft | 463 kts | 345° |
| 2026-04-17 22:14 | -21.09662 | -47.78289 | 36247 ft | 464 kts | 346° |
| 2026-04-17 22:14 | -21.03247 | -47.79131 | 36244 ft | 464 kts | 346° |
| 2026-04-17 22:15 | -20.96838 | -47.79986 | 36245 ft | 464 kts | 346° |
| 2026-04-17 22:15 | -20.90432 | -47.80854 | 36238 ft | 464 kts | 346° |
| 2026-04-17 22:16 | -20.84029 | -47.81724 | 36237 ft | 464 kts | 346° |
| 2026-04-17 22:16 | -20.77664 | -47.82588 | 36238 ft | 463 kts | 346° |
| 2026-04-17 22:17 | -20.71265 | -47.83456 | 36232 ft | 463 kts | 346° |
| 2026-04-17 22:17 | -20.64864 | -47.84323 | 36232 ft | 463 kts | 346° |
| 2026-04-17 22:18 | -20.58472 | -47.85188 | 36237 ft | 463 kts | 346° |
| 2026-04-17 22:18 | -20.52070 | -47.86054 | 36238 ft | 463 kts | 346° |
| 2026-04-17 22:19 | -20.45681 | -47.86917 | 36241 ft | 463 kts | 346° |
| 2026-04-17 22:19 | -20.39284 | -47.87781 | 36241 ft | 463 kts | 346° |
| 2026-04-17 22:20 | -20.32878 | -47.88647 | 36241 ft | 463 kts | 346° |
| 2026-04-17 22:20 | -20.26473 | -47.89516 | 36242 ft | 463 kts | 346° |
| 2026-04-17 22:21 | -20.20118 | -47.90379 | 36240 ft | 463 kts | 346° |
| 2026-04-17 22:21 | -20.13717 | -47.91246 | 36243 ft | 463 kts | 346° |
| 2026-04-17 22:22 | -20.07318 | -47.92112 | 36244 ft | 463 kts | 346° |
| 2026-04-17 22:22 | -20.00913 | -47.92978 | 36245 ft | 463 kts | 346° |
| 2026-04-17 22:23 | -19.94541 | -47.93839 | 36240 ft | 463 kts | 346° |
| 2026-04-17 22:23 | -19.88145 | -47.94703 | 36237 ft | 463 kts | 346° |
| 2026-04-17 22:24 | -19.81746 | -47.95566 | 36232 ft | 463 kts | 346° |
| 2026-04-17 22:24 | -19.75342 | -47.96429 | 36228 ft | 463 kts | 346° |
| 2026-04-17 22:25 | -19.68953 | -47.97290 | 36229 ft | 463 kts | 346° |
| 2026-04-17 22:25 | -19.62559 | -47.98150 | 36229 ft | 463 kts | 346° |
| 2026-04-17 22:26 | -19.56155 | -47.99011 | 36227 ft | 464 kts | 346° |
| 2026-04-17 22:26 | -19.49755 | -47.99871 | 36229 ft | 464 kts | 346° |
| 2026-04-17 22:27 | -19.43386 | -48.00726 | 36228 ft | 464 kts | 346° |
| 2026-04-17 22:27 | -19.36982 | -48.01585 | 36231 ft | 464 kts | 346° |
| 2026-04-17 22:28 | -19.30563 | -48.02446 | 36229 ft | 464 kts | 346° |
| 2026-04-17 22:28 | -19.24156 | -48.03334 | 36231 ft | 464 kts | 346° |
| 2026-04-17 22:29 | -19.17780 | -48.04240 | 36234 ft | 465 kts | 346° |
| 2026-04-17 22:29 | -19.11368 | -48.05146 | 36240 ft | 465 kts | 346° |
| 2026-04-17 22:30 | -19.04945 | -48.06049 | 36240 ft | 465 kts | 346° |
| 2026-04-17 22:30 | -18.98515 | -48.06952 | 36247 ft | 466 kts | 346° |
| 2026-04-17 22:31 | -18.92106 | -48.07914 | 36250 ft | 463 kts | 342° |
| 2026-04-17 22:31 | -18.85995 | -48.09797 | 36241 ft | 452 kts | 333° |
| 2026-04-17 22:32 | -18.80125 | -48.12061 | 36239 ft | 452 kts | 333° |
| 2026-04-17 22:32 | -18.74203 | -48.14324 | 36239 ft | 453 kts | 333° |
| 2026-04-17 22:33 | -18.68254 | -48.16592 | 36239 ft | 453 kts | 333° |
| 2026-04-17 22:33 | -18.62347 | -48.18844 | 36238 ft | 454 kts | 333° |
| 2026-04-17 22:34 | -18.56400 | -48.21109 | 36237 ft | 453 kts | 333° |
| 2026-04-17 22:34 | -18.50472 | -48.23366 | 36239 ft | 453 kts | 333° |
| 2026-04-17 22:35 | -18.44542 | -48.25622 | 36251 ft | 453 kts | 333° |
| 2026-04-17 22:35 | -18.38606 | -48.27877 | 36240 ft | 452 kts | 333° |
| 2026-04-17 22:36 | -18.32702 | -48.30119 | 36238 ft | 450 kts | 333° |
| 2026-04-17 22:36 | -18.26829 | -48.32350 | 35969 ft | 451 kts | 333° |
| 2026-04-17 22:36 | -18.23876 | -48.33469 | 35724 ft | 450 kts | 333° |
| 2026-04-17 22:37 | -18.20925 | -48.34588 | 35469 ft | 451 kts | 333° |
| 2026-04-17 22:37 | -18.17968 | -48.35711 | 35225 ft | 453 kts | 333° |
| 2026-04-17 22:37 | -18.14992 | -48.36841 | 34949 ft | 454 kts | 333° |
| 2026-04-17 22:37 | -18.12011 | -48.37973 | 34329 ft | 458 kts | 333° |
| 2026-04-17 22:38 | -18.08999 | -48.39116 | 33466 ft | 463 kts | 334° |
| 2026-04-17 22:38 | -18.05951 | -48.40272 | 32616 ft | 465 kts | 334° |
| 2026-04-17 22:38 | -18.02929 | -48.41416 | 31785 ft | 467 kts | 334° |
| 2026-04-17 22:38 | -17.99881 | -48.42567 | 31199 ft | 462 kts | 334° |
| 2026-04-17 22:39 | -17.96863 | -48.43705 | 30618 ft | 457 kts | 334° |
| 2026-04-17 22:39 | -17.93880 | -48.44831 | 30039 ft | 453 kts | 334° |
| 2026-04-17 22:39 | -17.87999 | -48.47054 | 28890 ft | 444 kts | 334° |
| 2026-04-17 22:40 | -17.85099 | -48.48150 | 28322 ft | 440 kts | 334° |
| 2026-04-17 22:40 | -17.82234 | -48.49233 | 27758 ft | 436 kts | 334° |
| 2026-04-17 22:40 | -17.79393 | -48.50307 | 27200 ft | 432 kts | 334° |
| 2026-04-17 22:40 | -17.76578 | -48.51370 | 26640 ft | 428 kts | 334° |
| 2026-04-17 22:41 | -17.73788 | -48.52423 | 26087 ft | 424 kts | 334° |
| 2026-04-17 22:41 | -17.71073 | -48.53470 | 25546 ft | 418 kts | 332° |
| 2026-04-17 22:41 | -17.68412 | -48.54727 | 24992 ft | 412 kts | 330° |
| 2026-04-17 22:41 | -17.65847 | -48.55963 | 24459 ft | 409 kts | 330° |
| 2026-04-17 22:42 | -17.63270 | -48.57200 | 23919 ft | 405 kts | 330° |
| 2026-04-17 22:42 | -17.60717 | -48.58424 | 23381 ft | 401 kts | 330° |
| 2026-04-17 22:42 | -17.58192 | -48.59633 | 22849 ft | 397 kts | 330° |
| 2026-04-17 22:42 | -17.55687 | -48.60831 | 22319 ft | 393 kts | 330° |
| 2026-04-17 22:43 | -17.53212 | -48.62015 | 21791 ft | 390 kts | 330° |
| 2026-04-17 22:43 | -17.50745 | -48.63196 | 21265 ft | 387 kts | 330° |
| 2026-04-17 22:43 | -17.48309 | -48.64361 | 20742 ft | 383 kts | 330° |
| 2026-04-17 22:43 | -17.45888 | -48.65519 | 20221 ft | 380 kts | 330° |
| 2026-04-17 22:44 | -17.43525 | -48.66649 | 19710 ft | 377 kts | 330° |
| 2026-04-17 22:44 | -17.41152 | -48.67782 | 19203 ft | 374 kts | 330° |
| 2026-04-17 22:44 | -17.38789 | -48.68911 | 18679 ft | 371 kts | 330° |
| 2026-04-17 22:44 | -17.36452 | -48.70027 | 18173 ft | 368 kts | 331° |
| 2026-04-17 22:45 | -17.34134 | -48.71133 | 17668 ft | 365 kts | 331° |
| 2026-04-17 22:45 | -17.31829 | -48.72234 | 17166 ft | 363 kts | 331° |
| 2026-04-17 22:45 | -17.29536 | -48.73328 | 16660 ft | 360 kts | 331° |
| 2026-04-17 22:45 | -17.27265 | -48.74411 | 16156 ft | 357 kts | 331° |
| 2026-04-17 22:46 | -17.25010 | -48.75486 | 15662 ft | 355 kts | 331° |
| 2026-04-17 22:46 | -17.22777 | -48.76551 | 15169 ft | 352 kts | 331° |
| 2026-04-17 22:46 | -17.20553 | -48.77611 | 14684 ft | 350 kts | 332° |
| 2026-04-17 22:46 | -17.18345 | -48.78663 | 14201 ft | 347 kts | 332° |
| 2026-04-17 22:47 | -17.16157 | -48.79705 | 13712 ft | 344 kts | 332° |
| 2026-04-17 22:47 | -17.13985 | -48.80739 | 13238 ft | 342 kts | 332° |
| 2026-04-17 22:47 | -17.11830 | -48.81765 | 12756 ft | 339 kts | 332° |
| 2026-04-17 22:47 | -17.09716 | -48.82771 | 12295 ft | 336 kts | 332° |
| 2026-04-17 22:48 | -17.07599 | -48.83777 | 11835 ft | 333 kts | 332° |
| 2026-04-17 22:48 | -17.05494 | -48.84777 | 11367 ft | 331 kts | 332° |
| 2026-04-17 22:48 | -17.03410 | -48.85767 | 10905 ft | 328 kts | 332° |
| 2026-04-17 22:48 | -17.01346 | -48.86747 | 10574 ft | 321 kts | 332° |
| 2026-04-17 22:49 | -16.99350 | -48.87693 | 10453 ft | 308 kts | 332° |
| 2026-04-17 22:49 | -16.97436 | -48.88599 | 10295 ft | 297 kts | 332° |
| 2026-04-17 22:49 | -16.95566 | -48.89487 | 9991 ft | 292 kts | 332° |
| 2026-04-17 22:49 | -16.93742 | -48.90353 | 9856 ft | 286 kts | 332° |
| 2026-04-17 22:50 | -16.91910 | -48.91226 | 9567 ft | 292 kts | 332° |
| 2026-04-17 22:50 | -16.90049 | -48.92112 | 9195 ft | 294 kts | 332° |
| 2026-04-17 22:50 | -16.88188 | -48.92995 | 8817 ft | 293 kts | 332° |
| 2026-04-17 22:50 | -16.86336 | -48.93873 | 8443 ft | 291 kts | 332° |
| 2026-04-17 22:51 | -16.85115 | -48.94452 | 8186 ft | 290 kts | 333° |
| 2026-04-17 22:51 | -16.83287 | -48.95317 | 7817 ft | 287 kts | 333° |
| 2026-04-17 22:51 | -16.81473 | -48.96177 | 7465 ft | 285 kts | 333° |
| 2026-04-17 22:51 | -16.79679 | -48.97026 | 7134 ft | 281 kts | 333° |
| 2026-04-17 22:52 | -16.77929 | -48.97854 | 7021 ft | 270 kts | 333° |
| 2026-04-17 22:52 | -16.76393 | -48.98872 | 6928 ft | 253 kts | 312° |
| 2026-04-17 22:52 | -16.75409 | -49.00309 | 6836 ft | 236 kts | 297° |
| 2026-04-17 22:52 | -16.74622 | -49.01741 | 6723 ft | 224 kts | 297° |
| 2026-04-17 22:53 | -16.73859 | -49.03112 | 6624 ft | 212 kts | 297° |
| 2026-04-17 22:53 | -16.73136 | -49.04401 | 6534 ft | 195 kts | 297° |
| 2026-04-17 22:53 | -16.72486 | -49.05555 | 6457 ft | 172 kts | 297° |
| 2026-04-17 22:53 | -16.71918 | -49.06561 | 6326 ft | 150 kts | 297° |
| 2026-04-17 22:54 | -16.71408 | -49.07466 | 6027 ft | 142 kts | 296° |
| 2026-04-17 22:54 | -16.70915 | -49.08347 | 5653 ft | 142 kts | 296° |
| 2026-04-17 22:54 | -16.70418 | -49.09239 | 5279 ft | 142 kts | 297° |
| 2026-04-17 22:54 | -16.69922 | -49.10125 | 4917 ft | 141 kts | 297° |
| 2026-04-17 22:55 | -16.69425 | -49.11009 | 4561 ft | 140 kts | 297° |
| 2026-04-17 22:55 | -16.68934 | -49.11883 | 4229 ft | 139 kts | 297° |
| 2026-04-17 22:55 | -16.68450 | -49.12743 | 4088 ft | 138 kts | 297° |
| 2026-04-17 22:55 | -16.67959 | -49.13615 | 4098 ft | 140 kts | 297° |
| 2026-04-17 22:56 | -16.67465 | -49.14496 | 4002 ft | 141 kts | 297° |
| 2026-04-17 22:56 | -16.66985 | -49.15354 | 3881 ft | 133 kts | 297° |
| 2026-04-17 22:56 | -16.66534 | -49.16158 | 3708 ft | 133 kts | 297° |
| 2026-04-17 22:56 | -16.66046 | -49.17018 | 3556 ft | 139 kts | 298° |
| 2026-04-17 22:57 | -16.65552 | -49.17880 | 3344 ft | 139 kts | 298° |
| 2026-04-17 22:57 | -16.65044 | -49.18748 | 3087 ft | 140 kts | 299° |
| 2026-04-17 22:57 | -16.64528 | -49.19599 | 2826 ft | 138 kts | 300° |
| 2026-04-17 22:57 | -16.64076 | -49.20475 | 2674 ft | 138 kts | 294° |
| 2026-04-17 22:58 | -16.63614 | -49.21359 | 2465 ft | 136 kts | 297° |
| 2026-04-17 22:58 | -16.63225 | -49.22056 | 2453 ft | 75 kts | 301° |
| 2026-04-17 22:58 | -16.63055 | -49.22362 | 2455 ft | 33 kts | 300° |
| 2026-04-17 22:58 | -16.62942 | -49.22559 | 2458 ft | 31 kts | 302° |
| 2026-04-17 22:59 | -16.62834 | -49.22750 | 2459 ft | 31 kts | 301° |
| 2026-04-17 22:59 | -16.62729 | -49.22944 | 2460 ft | 31 kts | 298° |
| 2026-04-17 22:59 | -16.62662 | -49.23107 | 2459 ft | 13 kts | 242° |
| 2026-04-17 22:59 | -16.62718 | -49.23122 | 2460 ft | 9 kts | 167° |
| 2026-04-17 23:00 | -16.62784 | -49.23105 | 2460 ft | 11 kts | 166° |
| 2026-04-17 23:00 | -16.62862 | -49.23078 | 2458 ft | 13 kts | 148° |
| 2026-04-17 23:00 | -16.62914 | -49.23000 | 2455 ft | 14 kts | 118° |
| 2026-04-17 23:00 | -16.62968 | -49.22903 | 2456 ft | 17 kts | 121° |
| 2026-04-17 23:01 | -16.63033 | -49.22793 | 2455 ft | 19 kts | 118° |
| 2026-04-17 23:01 | -16.63098 | -49.22666 | 2456 ft | 21 kts | 118° |
| 2026-04-17 23:01 | -16.63175 | -49.22531 | 2454 ft | 23 kts | 121° |
| 2026-04-17 23:01 | -16.63262 | -49.22378 | 2451 ft | 26 kts | 122° |
| 2026-04-17 23:02 | -16.63361 | -49.22205 | 2437 ft | 29 kts | 122° |
| 2026-04-17 23:02 | -16.63462 | -49.22025 | 2450 ft | 29 kts | 119° |
| 2026-04-17 23:02 | -16.63557 | -49.21848 | 2452 ft | 26 kts | 124° |
| 2026-04-17 23:02 | -16.63650 | -49.21691 | 2460 ft | 25 kts | 120° |
| 2026-04-17 23:03 | -16.63709 | -49.21538 | 2462 ft | 18 kts | 80° |
| 2026-04-17 23:03 | -16.63677 | -49.21431 | 2464 ft | 15 kts | 78° |
| 2026-04-17 23:03 | -16.63629 | -49.21367 | 2461 ft | 6 kts | 4° |
| 2026-04-17 23:03 | -16.63596 | -49.21396 | 2461 ft | 13 kts | 309° |
| 2026-04-17 23:04 | -16.63522 | -49.21519 | 2459 ft | 19 kts | 316° |
| 2026-04-17 23:04 | -16.63474 | -49.21524 | 2457 ft | 4 kts | 51° |
| 2026-04-17 23:04 | -16.63471 | -49.21474 | 2458 ft | 13 kts | 90° |
| 2026-04-17 23:04 | -16.63473 | -49.21345 | 2459 ft | 20 kts | 97° |
| 2026-04-17 23:05 | -16.63516 | -49.21199 | 2460 ft | 22 kts | 114° |
| 2026-04-17 23:05 | -16.63595 | -49.21060 | 2465 ft | 19 kts | 117° |
| 2026-04-17 23:05 | -16.63595 | -49.21025 | 2462 ft | 5 kts | 76° |
| 2026-04-17 23:05 | -16.63569 | -49.20998 | 2462 ft | 6 kts | 26° |
| 2026-04-17 23:06 | -16.63513 | -49.21000 | 2462 ft | 11 kts | 351° |
| 2026-04-17 23:06 | -16.63410 | -49.21031 | 2463 ft | 21 kts | 338° |
| 2026-04-17 23:06 | -16.63303 | -49.21177 | 2462 ft | 29 kts | 300° |
| 2026-04-17 23:06 | -16.63199 | -49.21366 | 2464 ft | 30 kts | 299° |
| 2026-04-17 23:07 | -16.63128 | -49.21480 | 2462 ft | 1 kts | 323° |
| 2026-04-17 23:07 | -16.63108 | -49.21479 | 2465 ft | 3 kts | 31° |
| 2026-04-17 23:07 | -16.63076 | -49.21453 | 2463 ft | 8 kts | 43° |
| 2026-04-17 23:07 | -16.63067 | -49.21445 | 2463 ft | 1 kts | 43° |